createdAt,value
2023-05-06T00:01:30.734Z,5.00
2023-05-06T00:03:52.450Z,3.40
2023-05-06T00:06:14.089Z,4.50
2023-05-06T00:08:35.884Z,6.20
2023-05-06T00:10:57.342Z,3.77
2023-05-06T00:13:18.889Z,4.80
2023-05-06T00:15:40.545Z,5.70
2023-05-06T00:18:02.199Z,6.10
2023-05-06T00:20:23.783Z,5.23
2023-05-06T00:22:45.272Z,3.63
2023-05-06T00:25:07.115Z,6.07
2023-05-06T00:27:28.797Z,6.73
2023-05-06T00:29:50.569Z,6.07
2023-05-06T00:32:12.077Z,5.07
2023-05-06T00:34:33.549Z,4.10
2023-05-06T00:36:54.988Z,3.20
2023-05-06T00:39:16.803Z,6.87
2023-05-06T00:41:38.253Z,4.27
2023-05-06T00:43:59.821Z,4.20
2023-05-06T00:46:21.324Z,6.23
2023-05-06T00:48:44.499Z,7.23
2023-05-06T00:51:06.249Z,11.40
2023-05-06T00:53:27.748Z,6.13
2023-05-06T00:55:51.271Z,6.03
2023-05-06T00:58:13.834Z,5.57
2023-05-06T01:00:35.624Z,4.83
2023-05-06T01:02:57.179Z,5.00
2023-05-06T01:05:22.508Z,4.43
2023-05-06T01:07:59.524Z,4.63
2023-05-06T01:10:34.027Z,4.20
2023-05-06T01:13:11.520Z,7.93
2023-05-06T01:15:41.962Z,4.30
2023-05-06T01:18:10.721Z,7.33
2023-05-06T01:20:33.622Z,5.60
2023-05-06T01:22:56.011Z,5.87
2023-05-06T01:25:21.928Z,4.90
2023-05-06T01:27:43.361Z,10.00
2023-05-06T01:30:05.234Z,7.43
2023-05-06T01:32:59.121Z,5.27
2023-05-06T01:35:48.045Z,5.17
2023-05-06T01:38:21.238Z,5.10
2023-05-06T01:40:46.860Z,6.20
2023-05-06T01:43:08.839Z,4.90
2023-05-06T01:45:31.987Z,9.27
2023-05-06T01:47:54.010Z,6.43
2023-05-06T01:50:15.692Z,7.13
2023-05-06T01:52:37.149Z,8.43
2023-05-06T01:54:58.611Z,5.30
2023-05-06T01:57:20.172Z,7.73
2023-05-06T01:59:41.636Z,6.70
2023-05-06T02:02:03.170Z,7.83
2023-05-06T02:04:25.062Z,7.40
2023-05-06T02:06:46.553Z,7.50
2023-05-06T02:09:07.972Z,5.63
2023-05-06T02:11:29.460Z,6.17
2023-05-06T02:13:50.917Z,8.03
2023-05-06T02:16:12.458Z,6.10
2023-05-06T02:18:34.210Z,5.30
2023-05-06T02:20:55.852Z,6.40
2023-05-06T02:23:17.277Z,7.10
2023-05-06T02:25:38.795Z,8.57
2023-05-06T02:28:00.353Z,5.43
2023-05-06T02:30:21.850Z,5.93
2023-05-06T02:32:43.307Z,5.47
2023-05-06T02:35:05.229Z,5.30
2023-05-06T02:37:26.691Z,8.13
2023-05-06T02:39:48.169Z,6.77
2023-05-06T02:42:10.691Z,7.83
2023-05-06T02:44:32.156Z,4.57
2023-05-06T02:46:53.612Z,7.93
2023-05-06T02:49:15.053Z,6.67
2023-05-06T02:51:36.609Z,4.27
2023-05-06T02:53:58.040Z,6.87
2023-05-06T02:56:19.471Z,7.03
2023-05-06T02:58:40.979Z,8.80
2023-05-06T03:01:02.579Z,4.80
2023-05-06T03:03:24.047Z,7.67
2023-05-06T03:05:45.757Z,6.90
2023-05-06T03:08:07.212Z,5.47
2023-05-06T03:10:28.814Z,27.60
2023-05-06T03:12:50.598Z,11.53
2023-05-06T03:15:12.392Z,29.10
2023-05-06T03:17:34.105Z,8.30
2023-05-06T03:19:55.710Z,5.60
2023-05-06T03:22:17.158Z,21.77
2023-05-06T03:24:38.609Z,55.37
2023-05-06T03:27:00.063Z,12.50
2023-05-06T03:29:21.514Z,6.83
2023-05-06T03:31:43.183Z,8.63
2023-05-06T03:34:04.730Z,176.37
2023-05-06T03:36:27.231Z,47.17
2023-05-06T03:38:48.656Z,58.17
2023-05-06T03:41:10.161Z,129.83
2023-05-06T03:43:31.621Z,87.53
2023-05-06T03:45:53.160Z,39.80
2023-05-06T03:48:14.708Z,147.37
2023-05-06T03:50:36.209Z,76.20
2023-05-06T03:52:57.739Z,144.17
2023-05-06T03:55:19.239Z,90.57
2023-05-06T03:57:40.713Z,166.60
2023-05-06T04:00:02.196Z,46.40
2023-05-06T04:02:23.926Z,203.20
2023-05-06T04:04:45.484Z,93.80
2023-05-06T04:07:06.940Z,93.20
2023-05-06T04:09:28.436Z,160.73
2023-05-06T04:11:49.883Z,108.07
2023-05-06T04:14:11.320Z,32.73
2023-05-06T04:16:32.801Z,21.17
2023-05-06T04:18:55.425Z,4.07
2023-05-06T04:21:18.385Z,38.17
2023-05-06T04:23:39.813Z,4.87
2023-05-06T04:26:01.358Z,4.90
2023-05-06T04:28:23.024Z,88.27
2023-05-06T04:30:47.659Z,11.20
2023-05-06T04:33:09.188Z,12.47
2023-05-06T04:35:30.923Z,3.30
2023-05-06T04:37:53.394Z,28.73
2023-05-06T04:40:14.880Z,7.67
2023-05-06T04:42:36.303Z,41.50
2023-05-06T04:44:59.138Z,26.77
2023-05-06T04:47:20.572Z,12.57
2023-05-06T04:49:42.426Z,54.73
2023-05-06T04:52:04.189Z,13.70
2023-05-06T04:54:25.726Z,27.43
2023-05-06T04:56:47.217Z,23.37
2023-05-06T04:59:08.718Z,7.70
2023-05-06T05:01:31.133Z,22.77
2023-05-06T05:03:52.615Z,67.97
2023-05-06T05:06:14.099Z,10.13
2023-05-06T05:08:35.567Z,5.13
2023-05-06T05:10:57.024Z,5.40
2023-05-06T05:13:19.386Z,5.93
2023-05-06T05:15:40.906Z,3.07
2023-05-06T05:18:02.369Z,2.80
2023-05-06T05:20:23.985Z,2.67
2023-05-06T05:22:45.530Z,2.57
2023-05-06T05:25:08.472Z,2.40
2023-05-06T05:27:30.566Z,3.00
2023-05-06T05:29:52.019Z,3.80
2023-05-06T05:32:13.545Z,2.40
2023-05-06T05:34:35.052Z,2.93
2023-05-06T05:36:59.504Z,2.73
2023-05-06T05:39:21.064Z,2.50
2023-05-06T05:41:42.495Z,2.87
2023-05-06T05:44:04.117Z,3.57
2023-05-06T05:46:25.622Z,3.07
2023-05-06T05:48:47.042Z,3.30
2023-05-06T05:51:08.655Z,3.60
2023-05-06T05:53:30.105Z,3.90
2023-05-06T05:55:51.535Z,5.00
2023-05-06T05:58:13.002Z,4.77
2023-05-06T06:00:34.434Z,4.90
2023-05-06T06:02:55.991Z,8.23
2023-05-06T06:05:17.535Z,11.10
2023-05-06T06:07:39.516Z,6.90
2023-05-06T06:10:01.007Z,6.97
2023-05-06T06:12:23.031Z,7.07
2023-05-06T06:14:48.036Z,7.67
2023-05-06T06:17:09.658Z,10.17
2023-05-06T06:19:31.913Z,9.10
2023-05-06T06:21:53.669Z,10.30
2023-05-06T06:24:15.143Z,10.52
2023-05-06T06:26:36.612Z,10.18
2023-05-06T06:28:58.076Z,10.98
2023-05-06T06:31:19.508Z,11.13
2023-05-06T06:33:40.992Z,9.25
2023-05-06T06:36:02.455Z,9.20
2023-05-06T06:38:23.998Z,9.23
2023-05-06T06:40:45.910Z,9.35
2023-05-06T06:43:07.422Z,8.75
2023-05-06T06:45:29.214Z,8.38
2023-05-06T06:47:50.750Z,10.02
2023-05-06T06:50:12.389Z,6.65
2023-05-06T06:52:35.271Z,6.80
2023-05-06T06:54:56.719Z,8.20
2023-05-06T06:57:18.237Z,5.88
2023-05-06T06:59:39.648Z,5.95
2023-05-06T07:02:02.403Z,5.93
2023-05-06T07:04:25.703Z,6.72
2023-05-06T07:06:47.243Z,7.65
2023-05-06T07:09:08.713Z,7.40
2023-05-06T07:11:30.147Z,5.07
2023-05-06T07:13:51.687Z,6.43
2023-05-06T07:16:13.178Z,5.75
2023-05-06T07:18:34.634Z,6.00
2023-05-06T07:20:56.135Z,5.53
2023-05-06T07:23:17.600Z,6.57
2023-05-06T07:25:39.023Z,6.75
2023-05-06T07:28:00.542Z,7.35
2023-05-06T07:30:23.293Z,5.32
2023-05-06T07:32:45.036Z,4.63
2023-05-06T07:35:06.873Z,4.75
2023-05-06T07:37:28.508Z,4.93
2023-05-06T07:39:49.942Z,4.75
2023-05-06T07:42:13.197Z,4.88
2023-05-06T07:44:36.306Z,6.07
2023-05-06T07:46:57.979Z,4.78
2023-05-06T07:49:19.664Z,4.72
2023-05-06T07:51:42.268Z,5.45
2023-05-06T07:54:03.864Z,3.67
2023-05-06T07:56:25.311Z,4.60
2023-05-06T07:58:48.206Z,4.70
2023-05-06T08:01:09.677Z,5.35
2023-05-06T08:03:31.656Z,4.90
2023-05-06T08:05:53.557Z,5.22
2023-05-06T08:08:15.642Z,6.53
2023-05-06T08:10:37.114Z,4.20
2023-05-06T08:12:58.634Z,3.90
2023-05-06T08:15:20.155Z,4.95
2023-05-06T08:17:41.676Z,4.22
2023-05-06T08:20:03.331Z,3.42
2023-05-06T08:22:24.819Z,3.13
2023-05-06T08:24:46.229Z,3.13
2023-05-06T08:27:07.754Z,1.90
2023-05-06T08:29:29.172Z,2.97
2023-05-06T08:31:50.669Z,2.08
2023-05-06T08:34:12.140Z,1.98
2023-05-06T08:36:33.625Z,2.97
2023-05-06T08:38:55.066Z,2.58
2023-05-06T08:41:18.536Z,1.92
2023-05-06T08:43:44.354Z,1.50
2023-05-06T08:46:05.895Z,2.92
2023-05-06T08:48:27.502Z,1.65
2023-05-06T08:50:49.324Z,1.58
2023-05-06T08:53:14.851Z,2.42
2023-05-06T08:55:37.002Z,1.83
2023-05-06T08:57:59.285Z,4.30
2023-05-06T09:00:20.823Z,1.85
2023-05-06T09:02:43.382Z,2.45
2023-05-06T09:05:05.572Z,3.70
2023-05-06T09:07:27.078Z,1.88
2023-05-06T09:09:49.289Z,1.98
2023-05-06T09:12:12.302Z,1.58
2023-05-06T09:14:33.746Z,1.77
2023-05-06T09:16:55.294Z,2.70
2023-05-06T09:19:18.783Z,2.55
2023-05-06T09:21:42.911Z,2.13
2023-05-06T09:24:06.450Z,1.85
2023-05-06T09:26:29.602Z,3.63
2023-05-06T09:28:51.673Z,1.83
2023-05-06T09:31:15.925Z,2.17
2023-05-06T09:33:37.759Z,5.25
2023-05-06T09:35:59.191Z,2.53
2023-05-06T09:38:21.763Z,2.92
2023-05-06T09:40:43.239Z,1.10
2023-05-06T09:43:05.812Z,2.60
2023-05-06T09:45:29.309Z,3.17
2023-05-06T09:47:53.867Z,2.00
2023-05-06T09:50:15.702Z,2.47
2023-05-06T09:52:37.594Z,3.67
2023-05-06T09:55:00.234Z,2.00
2023-05-06T09:57:22.500Z,3.42
2023-05-06T09:59:44.895Z,2.55
2023-05-06T10:02:06.750Z,2.47
2023-05-06T10:04:31.095Z,4.00
2023-05-06T10:06:55.280Z,1.70
2023-05-06T10:09:18.311Z,2.13
2023-05-06T10:11:40.507Z,4.38
2023-05-06T10:14:02.680Z,3.47
2023-05-06T10:16:24.224Z,1.75
2023-05-06T10:18:46.692Z,2.00
2023-05-06T10:21:19.703Z,2.22
2023-05-06T10:23:45.098Z,2.13
2023-05-06T10:26:10.539Z,2.47
2023-05-06T10:28:33.250Z,1.77
2023-05-06T10:30:58.138Z,3.03
2023-05-06T10:33:22.948Z,4.68
2023-05-06T10:36:03.261Z,2.08
2023-05-06T10:38:34.276Z,3.17
2023-05-06T10:40:56.619Z,2.20
2023-05-06T10:43:31.669Z,2.88
2023-05-06T10:46:05.444Z,1.88
2023-05-06T10:48:27.771Z,1.48
2023-05-06T10:50:49.254Z,2.00
2023-05-06T10:53:10.812Z,2.47
2023-05-06T10:55:34.215Z,2.15
2023-05-06T10:58:16.450Z,2.40
2023-05-06T11:00:38.207Z,2.70
2023-05-06T11:03:07.028Z,1.95
2023-05-06T11:05:28.776Z,3.17
2023-05-06T11:07:52.125Z,3.03
2023-05-06T11:10:13.755Z,25.38
2023-05-06T11:12:55.275Z,12.40
2023-05-06T11:15:40.565Z,3.85
2023-05-06T11:18:28.096Z,33.25
2023-05-06T11:20:50.904Z,3.25
2023-05-06T11:23:12.493Z,11.30
2023-05-06T11:25:42.503Z,33.75
2023-05-06T11:28:10.393Z,2.35
2023-05-06T11:30:31.905Z,21.65
2023-05-06T11:32:55.911Z,15.35
2023-05-06T11:35:18.022Z,2.17
2023-05-06T11:37:42.444Z,3.92
2023-05-06T11:40:13.967Z,3.00
2023-05-06T11:42:36.267Z,5.30
2023-05-06T11:45:01.218Z,11.40
2023-05-06T11:47:23.862Z,10.55
2023-05-06T11:49:45.442Z,2.63
2023-05-06T11:52:12.298Z,1.70
2023-05-06T11:54:35.682Z,2.22
2023-05-06T11:56:58.178Z,2.35
2023-05-06T11:59:31.533Z,2.70
2023-05-06T12:01:52.964Z,1.63
2023-05-06T12:04:14.572Z,12.50
2023-05-06T12:06:36.759Z,2.08
2023-05-06T12:08:58.323Z,6.07
2023-05-06T12:11:19.962Z,5.18
2023-05-06T12:13:41.681Z,3.00
2023-05-06T12:16:04.906Z,2.50
2023-05-06T12:18:27.745Z,12.02
2023-05-06T12:20:49.265Z,6.00
2023-05-06T12:23:12.491Z,3.22
2023-05-06T12:25:34.205Z,2.30
2023-05-06T12:27:58.029Z,3.17
2023-05-06T12:30:30.258Z,1.58
2023-05-06T12:32:59.254Z,2.83
2023-05-06T12:35:31.647Z,1.90
2023-05-06T12:37:53.096Z,3.55
2023-05-06T12:40:18.113Z,3.40
2023-05-06T12:42:39.600Z,2.75
2023-05-06T12:45:13.745Z,2.03
2023-05-06T12:47:35.547Z,3.22
2023-05-06T12:50:07.931Z,2.17
2023-05-06T12:52:30.230Z,4.30
2023-05-06T12:54:55.005Z,3.35
2023-05-06T12:57:16.720Z,4.97
2023-05-06T12:59:38.566Z,5.53
2023-05-06T13:02:00.159Z,2.55
2023-05-06T13:04:22.378Z,2.22
2023-05-06T13:06:43.908Z,3.33
2023-05-06T13:09:05.711Z,33.22
2023-05-06T13:11:28.038Z,1.90
2023-05-06T13:13:49.503Z,6.30
2023-05-06T13:16:11.169Z,1.90
2023-05-06T13:18:32.860Z,24.77
2023-05-06T13:20:54.381Z,2.85
2023-05-06T13:23:17.121Z,2.80
2023-05-06T13:25:51.693Z,2.20
2023-05-06T13:28:17.676Z,6.43
2023-05-06T13:30:39.199Z,2.20
2023-05-06T13:33:01.056Z,5.65
2023-05-06T13:35:22.533Z,1.88
2023-05-06T13:37:43.996Z,1.17
2023-05-06T13:40:06.415Z,3.17
2023-05-06T13:42:27.936Z,3.15
2023-05-06T13:44:49.408Z,13.85
2023-05-06T13:47:10.879Z,3.13
2023-05-06T13:49:32.533Z,2.42
2023-05-06T13:51:53.988Z,3.40
2023-05-06T13:54:15.541Z,4.03
2023-05-06T13:56:37.044Z,3.85
2023-05-06T13:58:58.568Z,2.17
2023-05-06T14:01:24.172Z,1.52
2023-05-06T14:03:45.757Z,2.22
2023-05-06T14:06:08.349Z,2.60
2023-05-06T14:08:29.895Z,2.00
2023-05-06T14:10:51.471Z,3.63
2023-05-06T14:13:12.941Z,3.72
2023-05-06T14:15:34.632Z,1.70
2023-05-06T14:17:56.258Z,1.77
2023-05-06T14:20:17.824Z,4.45
2023-05-06T14:22:42.181Z,1.73
2023-05-06T14:25:03.859Z,5.75
2023-05-06T14:27:25.673Z,3.65
2023-05-06T14:29:47.207Z,3.28
2023-05-06T14:32:09.511Z,3.78
2023-05-06T14:34:30.937Z,3.20
2023-05-06T14:36:52.736Z,2.13
2023-05-06T14:39:14.298Z,2.90
2023-05-06T14:41:35.906Z,1.45
2023-05-06T14:43:57.424Z,3.92
2023-05-06T14:46:18.942Z,9.18
2023-05-06T14:48:40.515Z,9.32
2023-05-06T14:51:02.013Z,7.72
2023-05-06T14:53:23.480Z,12.23
2023-05-06T14:55:45.565Z,4.82
2023-05-06T14:58:07.026Z,3.80
2023-05-06T15:00:28.538Z,2.85
2023-05-06T15:02:49.961Z,1.90
2023-05-06T15:05:12.255Z,1.52
2023-05-06T15:07:34.041Z,2.30
2023-05-06T15:09:55.483Z,2.20
2023-05-06T15:12:16.960Z,1.60
2023-05-06T15:14:39.479Z,1.75
2023-05-06T15:17:01.039Z,2.00
2023-05-06T15:19:22.555Z,1.75
2023-05-06T15:21:44.149Z,3.67
2023-05-06T15:24:06.052Z,3.95
2023-05-06T15:26:27.614Z,1.63
2023-05-06T15:28:49.061Z,1.70
2023-05-06T15:31:10.627Z,2.08
2023-05-06T15:33:32.215Z,2.85
2023-05-06T15:35:53.740Z,3.80
2023-05-06T15:38:15.530Z,3.25
2023-05-06T15:40:40.603Z,4.50
2023-05-06T15:43:02.183Z,1.48
2023-05-06T15:45:23.681Z,31.92
2023-05-06T15:47:45.784Z,8.93
2023-05-06T15:52:32.190Z,1.90
2023-05-06T15:54:58.863Z,1.83
2023-05-06T15:57:20.886Z,1.83
2023-05-06T15:59:42.357Z,1.45
2023-05-06T16:04:28.421Z,2.22
2023-05-06T16:06:50.234Z,2.35
2023-05-06T16:09:11.982Z,2.75
2023-05-06T16:11:33.456Z,2.15
2023-05-06T16:13:55.072Z,3.13
2023-05-06T16:16:16.549Z,1.98
2023-05-06T16:18:38.003Z,4.38
2023-05-06T16:20:59.558Z,8.25
2023-05-06T16:23:21.774Z,3.60
2023-05-06T16:25:43.373Z,3.45
2023-05-06T16:28:05.849Z,4.18
2023-05-06T16:30:27.306Z,2.67
2023-05-06T16:32:49.259Z,4.30
2023-05-06T16:35:10.977Z,2.22
2023-05-06T16:37:32.411Z,3.28
2023-05-06T16:39:53.850Z,2.72
2023-05-06T16:42:15.408Z,49.92
2023-05-06T16:44:36.854Z,9.25
2023-05-06T16:46:58.480Z,6.18
2023-05-06T16:49:21.131Z,4.65
2023-05-06T16:51:42.590Z,5.68
2023-05-06T16:54:04.119Z,3.88
2023-05-06T16:56:32.999Z,2.13
2023-05-06T16:59:01.881Z,14.85
2023-05-06T17:01:23.406Z,4.25
2023-05-06T17:03:45.605Z,1.67
2023-05-06T17:06:07.375Z,5.03
2023-05-06T17:08:28.806Z,4.00
2023-05-06T17:10:50.282Z,2.00
2023-05-06T17:13:11.838Z,3.47
2023-05-06T17:15:33.334Z,5.75
2023-05-06T17:17:54.839Z,5.20
2023-05-06T17:20:16.629Z,2.33
2023-05-06T17:22:38.109Z,1.58
2023-05-06T17:24:59.646Z,2.67
2023-05-06T17:27:21.134Z,3.60
2023-05-06T17:29:42.684Z,4.40
2023-05-06T17:32:06.755Z,2.95
2023-05-06T17:34:28.232Z,2.22
2023-05-06T17:36:49.720Z,2.03
2023-05-06T17:39:11.177Z,2.88
2023-05-06T17:41:33.544Z,5.80
2023-05-06T17:43:55.006Z,4.85
2023-05-06T17:46:19.714Z,3.38
2023-05-06T17:48:41.216Z,3.92
2023-05-06T17:51:03.227Z,3.55
2023-05-06T17:53:47.568Z,3.08
2023-05-06T17:56:09.132Z,3.03
2023-05-06T17:58:30.740Z,2.47
2023-05-06T18:00:52.206Z,3.33
2023-05-06T18:03:13.749Z,2.30
2023-05-06T18:05:35.364Z,2.83
2023-05-06T18:07:56.806Z,1.95
2023-05-06T18:10:19.073Z,1.83
2023-05-06T18:12:40.685Z,3.15
2023-05-06T18:15:02.392Z,4.43
2023-05-06T18:17:24.072Z,3.05
2023-05-06T18:19:45.599Z,2.80
2023-05-06T18:22:07.126Z,3.25
2023-05-06T18:24:28.597Z,5.88
2023-05-06T18:26:50.087Z,2.33
2023-05-06T18:29:11.694Z,2.22
2023-05-06T18:31:33.188Z,2.55
2023-05-06T18:33:54.640Z,1.92
2023-05-06T18:36:16.120Z,2.47
2023-05-06T18:38:37.629Z,3.20
2023-05-06T18:40:59.122Z,4.20
2023-05-06T18:43:20.855Z,2.28
2023-05-06T18:45:42.981Z,3.88
2023-05-06T18:48:05.177Z,3.35
2023-05-06T18:50:26.686Z,1.83
2023-05-06T18:52:48.134Z,2.10
2023-05-06T18:55:09.867Z,3.30
2023-05-06T18:57:31.705Z,3.20
2023-05-06T18:59:53.161Z,3.05
2023-05-06T19:02:14.656Z,1.40
2023-05-06T19:04:36.282Z,3.83
2023-05-06T19:06:57.992Z,4.18
2023-05-06T19:09:20.788Z,6.45
2023-05-06T19:11:42.272Z,3.17
2023-05-06T19:14:03.720Z,1.75
2023-05-06T19:16:25.367Z,2.63
2023-05-06T19:18:47.826Z,4.85
2023-05-06T19:21:12.776Z,1.40
2023-05-06T19:23:34.304Z,2.28
2023-05-06T19:25:55.896Z,1.30
2023-05-06T19:28:17.365Z,2.25
2023-05-06T19:30:38.927Z,3.75
2023-05-06T19:33:01.499Z,1.45
2023-05-06T19:35:23.035Z,3.00
2023-05-06T19:37:44.486Z,2.17
2023-05-06T19:40:07.773Z,3.00
2023-05-06T19:42:29.224Z,2.20
2023-05-06T19:44:50.836Z,5.47
2023-05-06T19:47:13.269Z,2.92
2023-05-06T19:49:34.724Z,2.35
2023-05-06T19:51:56.231Z,3.63
2023-05-06T19:54:19.338Z,4.32
2023-05-06T19:56:40.841Z,1.67
2023-05-06T19:59:02.321Z,1.80
2023-05-06T20:01:24.385Z,4.75
2023-05-06T20:03:46.157Z,2.45
2023-05-06T20:06:07.738Z,3.40
2023-05-06T20:08:29.250Z,2.05
2023-05-06T20:10:50.945Z,3.72
2023-05-06T20:13:12.512Z,4.03
2023-05-06T20:15:35.511Z,2.10
2023-05-06T20:17:57.009Z,1.85
2023-05-06T20:20:19.470Z,3.13
2023-05-06T20:22:41.424Z,5.43
2023-05-06T20:25:15.981Z,3.30
2023-05-06T20:27:37.600Z,2.42
2023-05-06T20:29:59.124Z,2.88
2023-05-06T20:32:20.733Z,5.05
2023-05-06T20:34:42.438Z,3.05
2023-05-06T20:37:04.687Z,2.08
2023-05-06T20:39:26.216Z,2.72
2023-05-06T20:41:47.854Z,5.78
2023-05-06T20:44:09.522Z,11.07
2023-05-06T20:46:32.920Z,11.75
2023-05-06T20:48:54.417Z,10.70
2023-05-06T20:51:16.110Z,12.73
2023-05-06T20:53:38.729Z,10.82
2023-05-06T20:56:00.308Z,7.63
2023-05-06T20:58:21.802Z,13.15
2023-05-06T21:00:43.332Z,10.85
2023-05-06T21:03:04.921Z,11.90
2023-05-06T21:05:26.537Z,11.60
2023-05-06T21:07:47.980Z,6.22
2023-05-06T21:10:11.025Z,5.93
2023-05-06T21:12:33.409Z,6.85
2023-05-06T21:14:54.939Z,4.60
2023-05-06T21:17:16.477Z,6.25
2023-05-06T21:19:38.066Z,4.88
2023-05-06T21:21:59.557Z,6.38
2023-05-06T21:24:21.021Z,6.53
2023-05-06T21:26:42.820Z,4.82
2023-05-06T21:29:04.283Z,5.05
2023-05-06T21:31:26.834Z,4.55
2023-05-06T21:33:54.918Z,8.02
2023-05-06T21:36:16.450Z,7.70
2023-05-06T21:38:37.903Z,5.60
2023-05-06T21:40:59.346Z,8.48
2023-05-06T21:43:20.885Z,8.68
2023-05-06T21:45:42.349Z,7.93
2023-05-06T21:48:03.988Z,5.88
2023-05-06T21:50:25.541Z,6.20
2023-05-06T21:52:47.143Z,8.02
2023-05-06T21:55:09.070Z,5.65
2023-05-06T21:57:30.956Z,8.93
2023-05-06T21:59:52.463Z,9.10
2023-05-06T22:02:14.182Z,8.15
2023-05-06T22:04:35.842Z,9.48
2023-05-06T22:06:57.663Z,6.78
2023-05-06T22:09:20.661Z,8.50
2023-05-06T22:11:42.318Z,8.07
2023-05-06T22:14:04.153Z,8.57
2023-05-06T22:16:25.752Z,9.02
2023-05-06T22:18:47.479Z,6.05
2023-05-06T22:21:09.807Z,8.93
2023-05-06T22:23:31.464Z,7.00
2023-05-06T22:25:52.972Z,9.20
2023-05-06T22:28:14.444Z,7.47
2023-05-06T22:30:36.057Z,6.95
2023-05-06T22:32:57.661Z,7.95
2023-05-06T22:35:19.204Z,7.30
2023-05-06T22:37:40.714Z,6.47
2023-05-06T22:40:02.268Z,5.68
2023-05-06T22:42:26.931Z,5.80
2023-05-06T22:44:48.367Z,8.70
2023-05-06T22:47:09.838Z,7.22
2023-05-06T22:49:31.346Z,4.78
2023-05-06T22:51:52.806Z,4.57
2023-05-06T22:54:14.283Z,7.50
2023-05-06T22:56:35.770Z,6.43
2023-05-06T22:58:57.270Z,6.55
2023-05-06T23:01:18.807Z,5.78
2023-05-06T23:03:40.582Z,5.93
2023-05-06T23:06:03.911Z,5.60
2023-05-06T23:08:25.416Z,6.10
2023-05-06T23:10:47.176Z,6.30
2023-05-06T23:13:08.868Z,4.40
2023-05-06T23:15:30.485Z,7.45
2023-05-06T23:17:51.937Z,3.60
2023-05-06T23:20:13.816Z,3.95
2023-05-06T23:22:35.701Z,4.00
2023-05-06T23:24:57.160Z,5.50
2023-05-06T23:27:18.614Z,3.75
2023-05-06T23:29:40.141Z,5.50
2023-05-06T23:32:01.718Z,5.50
2023-05-06T23:34:23.267Z,4.95
2023-05-06T23:36:44.767Z,4.35
2023-05-06T23:39:06.232Z,5.90
2023-05-06T23:41:27.711Z,6.93
2023-05-06T23:43:49.213Z,6.07
2023-05-06T23:46:11.268Z,6.10
2023-05-06T23:48:33.670Z,7.07
2023-05-06T23:50:55.169Z,6.90
2023-05-06T23:53:16.736Z,7.43
2023-05-06T23:55:38.269Z,6.30
2023-05-06T23:57:59.724Z,9.20
